Time;durP1;ratioP1;P1;durP2;ratioP2;P2;SDS_P1;SDS_P2;PMS_P1;PMS_P2;Temp;Humidity;BMP_temperature;BMP_pressure;BME280_temperature;BME280_humidity;BME280_pressure;Samples;Min_cycle;Max_cycle;Signal;HPM_P1;HPM_P2
2024/03/29 00:01:49;;;;;;;35.60;5.30;;;12.30;78.50;;;;;;5064790;28;20021;-59
2024/03/29 00:04:15;;;;;;;35.28;5.85;;;12.20;78.60;;;;;;5064750;28;20076;-59
2024/03/29 00:06:41;;;;;;;31.67;5.15;;;12.20;78.70;;;;;;5064795;28;20475;-59
2024/03/29 00:09:06;;;;;;;34.45;5.47;;;12.20;78.60;;;;;;5048011;28;20033;-59
2024/03/29 00:11:32;;;;;;;30.25;5.22;;;12.20;78.70;;;;;;5064630;28;20025;-59
2024/03/29 00:13:57;;;;;;;33.08;4.38;;;12.20;78.90;;;;;;5066071;28;20040;-59
2024/03/29 00:16:25;;;;;;;25.50;4.28;;;12.20;78.80;;;;;;5065830;28;20032;-59
2024/03/29 00:18:54;;;;;;;28.92;4.53;;;12.10;78.80;;;;;;5065804;28;20399;-59
2024/03/29 00:21:20;;;;;;;23.92;4.68;;;12.10;78.90;;;;;;5064984;28;20120;-59
2024/03/29 00:23:46;;;;;;;25.02;4.93;;;12.10;78.90;;;;;;5047551;28;20055;-59
2024/03/29 00:26:12;;;;;;;23.25;3.60;;;12.10;78.90;;;;;;5065838;28;20025;-59
2024/03/29 00:28:38;;;;;;;18.25;3.53;;;12.00;78.80;;;;;;5064415;28;20025;-59
2024/03/29 00:31:04;;;;;;;19.27;3.58;;;12.00;78.90;;;;;;5065672;28;20143;-59
2024/03/29 00:33:30;;;;;;;16.70;3.85;;;11.90;79.00;;;;;;5065872;28;20474;-59
2024/03/29 00:35:56;;;;;;;25.15;3.47;;;11.90;79.10;;;;;;5047477;28;20032;-59
2024/03/29 00:38:21;;;;;;;23.23;3.67;;;11.90;79.20;;;;;;5064015;28;20071;-59
2024/03/29 00:40:47;;;;;;;19.30;3.92;;;11.90;79.30;;;;;;5063923;28;20041;-59
2024/03/29 00:43:13;;;;;;;19.65;4.47;;;11.80;79.20;;;;;;5063849;28;20037;-59
2024/03/29 00:45:38;;;;;;;25.92;4.88;;;11.90;79.50;;;;;;5063987;28;20021;-59
2024/03/29 00:48:04;;;;;;;14.02;3.63;;;11.80;79.40;;;;;;5063679;28;20037;-59
2024/03/29 00:50:30;;;;;;;21.08;3.50;;;11.80;79.40;;;;;;5065389;28;20063;-59
2024/03/29 00:52:55;;;;;;;21.80;3.35;;;11.80;79.50;;;;;;5063896;28;20028;-59
2024/03/29 00:55:21;;;;;;;26.63;3.28;;;11.80;79.50;;;;;;5063877;28;20071;-59
2024/03/29 00:57:46;;;;;;;18.60;3.03;;;11.70;79.50;;;;;;5063888;28;20071;-59
2024/03/29 01:00:12;;;;;;;11.13;2.83;;;11.70;79.60;;;;;;5063804;28;20075;-59
2024/03/29 01:02:38;;;;;;;19.90;3.28;;;11.70;79.60;;;;;;5063521;28;20086;-59
2024/03/29 01:05:05;;;;;;;16.20;3.20;;;11.70;79.60;;;;;;5063805;28;20037;-58
2024/03/29 01:07:31;;;;;;;16.20;3.30;;;11.70;79.70;;;;;;5047283;28;20017;-58
2024/03/29 01:09:56;;;;;;;13.80;2.53;;;11.70;79.80;;;;;;5063622;28;20055;-59
2024/03/29 01:12:22;;;;;;;14.68;2.58;;;11.60;79.80;;;;;;5063520;28;20025;-59
2024/03/29 01:14:47;;;;;;;18.83;3.05;;;11.60;79.90;;;;;;5063501;28;20503;-59
2024/03/29 01:17:13;;;;;;;10.77;2.88;;;11.60;80.00;;;;;;5064973;28;20025;-59
2024/03/29 01:19:39;;;;;;;19.15;3.15;;;11.50;80.00;;;;;;5063818;28;20029;-59
2024/03/29 01:22:04;;;;;;;15.90;3.30;;;11.50;80.10;;;;;;5063179;28;20028;-59
2024/03/29 01:24:30;;;;;;;18.92;2.80;;;11.50;80.10;;;;;;5046638;28;20153;-59
2024/03/29 01:26:56;;;;;;;11.77;2.60;;;11.50;80.20;;;;;;5063193;28;20168;-59
2024/03/29 01:29:21;;;;;;;16.58;2.75;;;11.50;80.30;;;;;;5063030;28;20053;-59
2024/03/29 01:31:47;;;;;;;10.18;2.47;;;11.40;80.30;;;;;;5064482;28;20028;-59
2024/03/29 01:34:12;;;;;;;10.75;2.50;;;11.50;80.40;;;;;;5046332;28;20112;-59
2024/03/29 01:36:38;;;;;;;10.82;2.25;;;11.40;80.40;;;;;;5063025;28;20128;-59
2024/03/29 01:39:04;;;;;;;11.40;2.45;;;11.40;80.40;;;;;;5063068;28;20037;-59
2024/03/29 01:41:29;;;;;;;11.60;2.80;;;11.40;80.60;;;;;;5063041;28;20044;-59
2024/03/29 01:43:55;;;;;;;11.52;2.10;;;11.40;80.50;;;;;;5061966;28;20025;-59
2024/03/29 01:46:22;;;;;;;13.75;2.25;;;11.40;80.60;;;;;;5046875;28;20036;-59
2024/03/29 01:48:48;;;;;;;8.52;2.05;;;11.40;80.70;;;;;;5059475;28;20053;-59
2024/03/29 01:51:13;;;;;;;11.48;3.00;;;11.40;80.80;;;;;;5059501;28;20037;-59
2024/03/29 01:53:39;;;;;;;13.10;2.20;;;11.30;80.80;;;;;;5059106;28;20042;-58
2024/03/29 01:56:06;;;;;;;11.38;2.47;;;11.30;80.80;;;;;;5026375;28;20033;-59
2024/03/29 01:58:32;;;;;;;14.80;2.20;;;11.30;80.90;;;;;;5026220;28;20103;-59
2024/03/29 02:00:58;;;;;;;9.23;2.15;;;11.30;80.90;;;;;;5042699;28;20041;-59
2024/03/29 02:03:24;;;;;;;6.68;1.83;;;11.30;80.90;;;;;;5042299;28;20033;-59
2024/03/29 02:05:50;;;;;;;8.75;1.92;;;11.20;80.90;;;;;;5026078;28;20021;-59
2024/03/29 02:08:15;;;;;;;12.38;2.63;;;11.20;80.90;;;;;;5042894;28;20029;-59
2024/03/29 02:10:41;;;;;;;9.27;2.75;;;11.20;81.00;;;;;;5042436;28;20029;-59
2024/03/29 02:13:07;;;;;;;15.23;2.33;;;11.20;81.00;;;;;;5042695;28;20037;-59
2024/03/29 02:15:32;;;;;;;7.30;1.73;;;11.20;81.10;;;;;;5042560;28;20033;-59
2024/03/29 02:17:58;;;;;;;7.63;2.22;;;11.20;81.10;;;;;;5042581;28;20032;-59
2024/03/29 02:20:24;;;;;;;8.68;2.10;;;11.10;81.20;;;;;;5042665;28;20034;-59
2024/03/29 02:23:10;;;;;;;10.68;1.88;;;11.10;81.20;;;;;;5042297;28;20029;-59
2024/03/29 02:25:37;;;;;;;9.55;2.00;;;11.10;81.10;;;;;;5042445;28;20029;-59
2024/03/29 02:28:03;;;;;;;9.00;2.42;;;11.10;81.10;;;;;;5025995;28;20025;-59
2024/03/29 02:30:30;;;;;;;11.02;2.00;;;11.10;81.20;;;;;;5042382;28;20057;-59
2024/03/29 02:32:56;;;;;;;8.13;1.73;;;11.10;81.40;;;;;;5042429;28;20159;-59
2024/03/29 02:35:22;;;;;;;5.47;1.90;;;11.00;81.30;;;;;;5042461;28;20048;-59
2024/03/29 02:37:47;;;;;;;6.95;1.80;;;11.00;81.40;;;;;;5043907;28;20049;-59
2024/03/29 02:40:13;;;;;;;8.15;1.73;;;11.00;81.40;;;;;;5042030;28;20052;-59
2024/03/29 02:42:39;;;;;;;5.93;1.70;;;11.00;81.40;;;;;;5043544;28;20033;-59
2024/03/29 02:45:04;;;;;;;8.05;1.83;;;11.00;81.40;;;;;;5045904;28;20037;-59
2024/03/29 02:47:30;;;;;;;4.82;1.83;;;10.90;81.40;;;;;;5046189;28;20051;-59
2024/03/29 02:49:56;;;;;;;5.65;1.75;;;10.90;81.50;;;;;;5046026;28;20322;-59
2024/03/29 02:52:21;;;;;;;8.50;1.88;;;10.90;81.50;;;;;;5046032;28;20373;-59
2024/03/29 02:54:48;;;;;;;3.10;1.25;;;10.80;81.60;;;;;;5047578;28;20075;-59
2024/03/29 02:57:13;;;;;;;8.55;2.15;;;10.90;81.70;;;;;;5044597;28;20037;-59
2024/03/29 02:59:40;;;;;;;8.82;1.95;;;10.80;81.70;;;;;;5046014;28;20025;-59
2024/03/29 03:02:05;;;;;;;7.53;1.80;;;10.80;81.70;;;;;;5062534;28;20025;-59
2024/03/29 03:04:31;;;;;;;8.25;1.75;;;10.80;81.80;;;;;;5062128;28;20064;-59
2024/03/29 03:10:55;;;;;;;4.35;1.48;;;10.80;81.90;;;;;;5046009;28;20097;-59
2024/03/29 03:12:26;;;;;;;6.28;1.73;;;10.70;82.60;;;;;;5047083;28;20063;-59
2024/03/29 03:14:52;;;;;;;5.53;1.23;;;10.70;82.00;;;;;;5045490;28;20124;-59
2024/03/29 03:17:18;;;;;;;5.47;1.50;;;10.70;82.00;;;;;;5045653;28;20029;-59
2024/03/29 03:19:44;;;;;;;7.30;1.70;;;10.70;82.00;;;;;;5045762;28;20030;-59
2024/03/29 03:22:09;;;;;;;3.92;1.80;;;10.70;82.00;;;;;;5047047;28;20033;-59
2024/03/29 03:24:35;;;;;;;4.13;1.45;;;10.70;82.00;;;;;;5045608;28;20025;-59
2024/03/29 03:27:00;;;;;;;6.55;1.40;;;10.60;82.10;;;;;;5045304;28;20032;-59
2024/03/29 03:29:26;;;;;;;6.32;1.50;;;10.60;82.70;;;;;;5046896;28;20100;-59
2024/03/29 03:31:52;;;;;;;5.72;1.50;;;10.60;82.10;;;;;;5045431;28;20037;-59
2024/03/29 03:34:17;;;;;;;6.25;1.40;;;10.60;82.20;;;;;;5028786;28;20449;-59
2024/03/29 03:36:43;;;;;;;3.72;1.48;;;10.60;82.30;;;;;;5045562;28;20029;-59
2024/03/29 03:39:08;;;;;;;3.67;1.48;;;10.60;82.40;;;;;;5045555;28;20056;-58
2024/03/29 03:41:34;;;;;;;6.20;1.27;;;10.60;82.30;;;;;;5046825;28;20119;-59
2024/03/29 03:43:59;;;;;;;6.65;1.83;;;10.50;82.30;;;;;;5028534;28;20061;-59
2024/03/29 03:46:25;;;;;;;4.95;1.67;;;10.50;82.30;;;;;;5046415;28;20166;-59
2024/03/29 03:48:51;;;;;;;8.07;1.55;;;10.50;82.40;;;;;;5046740;28;20448;-58
2024/03/29 03:51:16;;;;;;;8.43;1.58;;;10.50;82.50;;;;;;5045044;28;20037;-59
2024/03/29 03:53:42;;;;;;;5.38;1.40;;;10.40;82.50;;;;;;5046539;28;20063;-59
2024/03/29 03:56:07;;;;;;;5.15;1.60;;;10.40;82.50;;;;;;5045111;28;20030;-59
2024/03/29 03:58:33;;;;;;;8.07;1.40;;;10.40;82.60;;;;;;5045176;28;20047;-59
2024/03/29 04:01:06;;;;;;;4.35;1.30;;;10.40;82.60;;;;;;5044801;28;20101;-59
2024/03/29 04:03:32;;;;;;;4.75;1.40;;;10.40;82.60;;;;;;5028023;28;20057;-59
2024/03/29 04:05:57;;;;;;;2.17;1.30;;;10.40;82.80;;;;;;5028177;28;20092;-59
2024/03/29 04:08:23;;;;;;;3.40;1.40;;;10.30;82.80;;;;;;5045961;28;20021;-59
2024/03/29 04:10:49;;;;;;;4.18;1.27;;;10.30;82.80;;;;;;5044487;28;20028;-59
2024/03/29 04:13:14;;;;;;;4.45;1.60;;;10.30;82.80;;;;;;5046171;28;20084;-59
2024/03/29 04:15:40;;;;;;;4.20;1.23;;;10.30;82.80;;;;;;5044664;28;20029;-59
2024/03/29 04:18:06;;;;;;;4.63;1.40;;;10.30;82.90;;;;;;5046340;28;20041;-58
2024/03/29 04:20:32;;;;;;;6.22;1.60;;;10.30;82.90;;;;;;5045184;28;20443;-59
2024/03/29 04:22:57;;;;;;;2.53;1.50;;;10.20;82.90;;;;;;5044720;28;20033;-59
2024/03/29 04:25:23;;;;;;;5.70;1.17;;;10.20;82.80;;;;;;5044932;28;20037;-59
2024/03/29 04:27:49;;;;;;;5.65;1.02;;;10.20;82.90;;;;;;5044392;28;20017;-59
2024/03/29 04:30:14;;;;;;;2.92;1.40;;;10.20;83.00;;;;;;5044192;28;20049;-59
2024/03/29 04:32:40;;;;;;;4.18;1.58;;;10.20;83.10;;;;;;5044511;28;20029;-59
2024/03/29 04:35:06;;;;;;;3.55;1.33;;;10.20;83.10;;;;;;5044217;28;20043;-59
2024/03/29 04:37:31;;;;;;;5.13;1.30;;;10.20;83.00;;;;;;5044274;28;20033;-59
2024/03/29 04:39:57;;;;;;;3.20;1.08;;;10.20;83.10;;;;;;5045325;28;20076;-59
2024/03/29 04:42:23;;;;;;;4.10;1.23;;;10.20;83.10;;;;;;5043901;28;20029;-59
2024/03/29 04:44:48;;;;;;;5.28;1.40;;;10.10;83.10;;;;;;5043973;28;20105;-59
2024/03/29 04:47:15;;;;;;;3.45;1.30;;;10.20;83.20;;;;;;5043968;28;20053;-59
2024/03/29 04:49:40;;;;;;;3.15;1.60;;;10.10;83.20;;;;;;5045384;28;20022;-59
2024/03/29 04:52:06;;;;;;;2.22;0.90;;;10.10;83.80;;;;;;5043842;28;20365;-59
2024/03/29 04:54:32;;;;;;;3.33;1.00;;;10.10;83.10;;;;;;5043945;28;20506;-59
2024/03/29 04:57:01;;;;;;;2.55;0.95;;;10.10;83.20;;;;;;5043751;28;20018;-58
2024/03/29 04:59:28;;;;;;;5.47;1.40;;;10.10;83.30;;;;;;5043876;28;20029;-59
2024/03/29 05:01:55;;;;;;;4.75;1.48;;;10.10;83.30;;;;;;5027098;28;20053;-59
2024/03/29 05:04:27;;;;;;;2.65;1.23;;;10.10;83.30;;;;;;5043704;28;20033;-59
2024/03/29 05:06:53;;;;;;;2.40;1.30;;;10.10;83.30;;;;;;5043321;28;20022;-59
2024/03/29 05:09:19;;;;;;;4.50;1.17;;;10.10;83.40;;;;;;5044870;28;20044;-59
2024/03/29 05:11:46;;;;;;;3.58;1.40;;;10.10;83.40;;;;;;5043545;28;20084;-59
2024/03/29 05:14:13;;;;;;;8.85;1.85;;;10.00;83.30;;;;;;5043549;28;20104;-60
2024/03/29 05:16:40;;;;;;;14.98;2.28;;;10.00;83.40;;;;;;5044771;28;20032;-59
2024/03/29 05:19:06;;;;;;;18.42;2.53;;;10.00;83.50;;;;;;5043401;28;20108;-58
2024/03/29 05:21:32;;;;;;;8.35;2.10;;;10.00;83.50;;;;;;5026909;28;20037;-59
2024/03/29 05:23:57;;;;;;;9.23;1.60;;;10.00;83.50;;;;;;5043135;28;20041;-59
2024/03/29 05:26:23;;;;;;;5.97;1.67;;;10.00;83.60;;;;;;5043442;28;20053;-59
2024/03/29 05:28:48;;;;;;;13.35;1.40;;;10.00;83.60;;;;;;5044720;28;20056;-59
2024/03/29 05:31:14;;;;;;;9.10;1.83;;;10.00;83.50;;;;;;5044522;28;20021;-59
2024/03/29 05:33:44;;;;;;;5.55;1.67;;;10.00;83.40;;;;;;5044722;28;20034;-59
2024/03/29 05:36:12;;;;;;;11.52;1.63;;;10.00;83.40;;;;;;5043026;28;20068;-59
2024/03/29 05:38:38;;;;;;;6.07;2.15;;;10.00;83.30;;;;;;5026815;28;20468;-59
2024/03/29 05:41:04;;;;;;;8.60;2.30;;;10.00;83.30;;;;;;5042793;28;20067;-59
2024/03/29 05:43:30;;;;;;;10.20;2.45;;;10.10;83.30;;;;;;5042854;28;20109;-59
2024/03/29 05:45:57;;;;;;;31.88;3.92;;;10.10;83.30;;;;;;5042867;28;20057;-59
2024/03/29 05:48:22;;;;;;;21.08;3.55;;;10.10;83.30;;;;;;5044437;28;20454;-59
2024/03/29 05:50:48;;;;;;;19.17;3.83;;;10.10;83.40;;;;;;5042738;28;20464;-59
2024/03/29 05:53:13;;;;;;;27.25;3.88;;;10.10;83.30;;;;;;5043053;28;20155;-59
2024/03/29 05:55:39;;;;;;;17.33;3.60;;;10.10;83.40;;;;;;5044348;28;20025;-59
2024/03/29 05:58:06;;;;;;;20.60;4.03;;;10.10;83.50;;;;;;5042926;28;20307;-59
2024/03/29 06:00:33;;;;;;;35.42;4.50;;;10.10;83.60;;;;;;5043071;28;20064;-59
2024/03/29 06:02:59;;;;;;;31.30;4.28;;;10.10;84.00;;;;;;5042697;28;20113;-59
2024/03/29 06:05:25;;;;;;;17.60;4.25;;;10.10;84.20;;;;;;5044088;28;20044;-59
2024/03/29 06:07:50;;;;;;;26.63;4.53;;;10.10;84.10;;;;;;5042716;28;20028;-59
2024/03/29 06:10:16;;;;;;;33.05;4.53;;;10.10;84.10;;;;;;5042482;28;20364;-59
2024/03/29 06:12:42;;;;;;;36.70;4.78;;;10.10;84.20;;;;;;5042585;28;20033;-59
2024/03/29 06:17:52;;;;;;;31.70;6.10;;;10.10;84.10;;;;;;5043463;28;20132;-59
2024/03/29 06:20:17;;;;;;;44.65;6.40;;;10.10;84.20;;;;;;5042540;28;20109;-59
2024/03/29 06:22:43;;;;;;;39.30;6.68;;;10.10;84.20;;;;;;5042449;28;20364;-59
2024/03/29 06:25:09;;;;;;;40.25;6.80;;;10.10;84.10;;;;;;5025938;28;20168;-59
2024/03/29 06:27:36;;;;;;;58.15;7.00;;;10.10;84.10;;;;;;5043704;28;20081;-59
2024/03/29 06:30:02;;;;;;;36.35;7.38;;;10.20;84.20;;;;;;5043265;28;20036;-59
2024/03/29 06:32:28;;;;;;;34.80;6.78;;;10.20;84.20;;;;;;5042645;28;20109;-59
2024/03/29 06:34:53;;;;;;;57.65;8.73;;;10.20;84.30;;;;;;5042585;28;20140;-59
2024/03/29 06:37:22;;;;;;;52.83;8.00;;;10.10;84.20;;;;;;5044468;28;20029;-59
2024/03/29 06:39:48;;;;;;;40.15;7.45;;;10.20;84.30;;;;;;5043798;28;20033;-59
2024/03/29 06:42:14;;;;;;;42.65;7.18;;;10.20;84.30;;;;;;5042840;28;20113;-59
2024/03/29 06:44:39;;;;;;;37.13;7.47;;;10.10;84.20;;;;;;5044146;28;20025;-59
2024/03/29 06:47:06;;;;;;;24.92;7.22;;;10.20;84.30;;;;;;5044422;28;20037;-59
2024/03/29 06:49:32;;;;;;;47.97;7.18;;;10.10;84.30;;;;;;5042572;28;20039;-59
2024/03/29 06:52:00;;;;;;;29.77;8.13;;;10.20;84.30;;;;;;5042499;28;20021;-59
2024/03/29 06:54:26;;;;;;;49.53;7.82;;;10.20;84.30;;;;;;5043988;28;20049;-59
2024/03/29 06:56:53;;;;;;;33.83;7.30;;;10.20;84.30;;;;;;5042442;28;20067;-59
2024/03/29 06:59:19;;;;;;;33.25;7.10;;;10.20;84.30;;;;;;5042245;28;20029;-59
2024/03/29 07:01:44;;;;;;;35.72;6.32;;;10.20;84.30;;;;;;5043589;28;20037;-59
2024/03/29 07:04:10;;;;;;;36.35;6.07;;;10.20;84.20;;;;;;5043464;28;20072;-59
2024/03/29 07:06:38;;;;;;;33.88;5.30;;;10.30;84.30;;;;;;5043551;28;20060;-59
2024/03/29 07:09:04;;;;;;;34.22;5.40;;;10.30;84.20;;;;;;5042442;28;20064;-59
2024/03/29 07:11:30;;;;;;;33.17;5.00;;;10.30;84.20;;;;;;5043622;28;20041;-59
2024/03/29 07:13:55;;;;;;;27.00;5.00;;;10.30;84.20;;;;;;5042094;28;20476;-59
2024/03/29 07:16:21;;;;;;;23.67;5.22;;;10.40;84.20;;;;;;5043412;28;20083;-59
2024/03/29 07:18:46;;;;;;;29.23;4.57;;;10.40;84.20;;;;;;5042290;28;20113;-59
2024/03/29 07:21:12;;;;;;;30.40;5.13;;;10.40;84.10;;;;;;5042649;28;20033;-59
2024/03/29 07:23:38;;;;;;;17.23;4.72;;;10.40;84.00;;;;;;5042323;28;20038;-59
2024/03/29 07:26:04;;;;;;;24.02;4.95;;;10.40;84.00;;;;;;5042160;28;20033;-59
2024/03/29 07:28:30;;;;;;;24.85;4.60;;;10.40;84.00;;;;;;5042168;28;20025;-57
2024/03/29 07:30:56;;;;;;;16.30;4.00;;;10.40;83.90;;;;;;5045237;28;20048;-59
2024/03/29 07:33:26;;;;;;;20.95;4.28;;;10.40;83.80;;;;;;5045529;28;20470;-59
2024/03/29 07:35:52;;;;;;;16.65;3.30;;;10.50;83.90;;;;;;5045797;28;20029;-59
2024/03/29 07:38:17;;;;;;;15.70;3.88;;;10.50;83.80;;;;;;5057019;28;20047;-59
2024/03/29 07:40:47;;;;;;;21.88;4.88;;;10.50;83.80;;;;;;5065791;28;20029;-59
2024/03/29 07:43:13;;;;;;;14.23;3.50;;;10.60;83.80;;;;;;5063605;28;20061;-59
2024/03/29 07:45:46;;;;;;;23.30;4.90;;;10.60;83.70;;;;;;5064394;28;20112;-59
2024/03/29 07:48:13;;;;;;;19.60;3.67;;;10.60;83.60;;;;;;5062588;28;20049;-59
2024/03/29 07:50:39;;;;;;;19.63;4.28;;;10.70;83.60;;;;;;5062257;28;20033;-59
2024/03/29 07:53:05;;;;;;;37.10;5.93;;;10.60;83.50;;;;;;5044390;28;20504;-59
2024/03/29 07:55:30;;;;;;;16.48;4.22;;;10.60;83.60;;;;;;5062582;28;20082;-59
2024/03/29 07:57:56;;;;;;;24.80;4.22;;;10.70;83.80;;;;;;5063531;28;20033;-59
2024/03/29 08:00:22;;;;;;;22.10;4.18;;;10.70;83.70;;;;;;5043523;28;20029;-59
2024/03/29 08:02:48;;;;;;;20.75;4.25;;;10.70;83.70;;;;;;5064227;28;20071;-59
2024/03/29 08:05:13;;;;;;;24.20;3.88;;;10.70;83.80;;;;;;5064452;28;20033;-59
2024/03/29 08:07:39;;;;;;;22.60;3.50;;;10.80;83.70;;;;;;5064713;28;20024;-59
2024/03/29 08:10:06;;;;;;;21.85;4.35;;;10.80;83.70;;;;;;5063101;28;20033;-59
2024/03/29 08:12:32;;;;;;;21.52;4.05;;;10.80;83.60;;;;;;5063254;28;20100;-59
2024/03/29 08:14:58;;;;;;;24.17;3.90;;;10.90;83.60;;;;;;5064371;28;20047;-59
2024/03/29 08:17:24;;;;;;;19.23;3.72;;;10.90;83.60;;;;;;5064515;28;20033;-59
2024/03/29 08:19:50;;;;;;;50.47;6.28;;;10.90;83.50;;;;;;5063799;28;20370;-59
2024/03/29 08:22:16;;;;;;;28.83;4.50;;;10.90;83.60;;;;;;5064185;28;20021;-59
2024/03/29 08:24:41;;;;;;;14.35;3.78;;;11.00;83.70;;;;;;5064515;28;20036;-59
2024/03/29 08:27:07;;;;;;;23.75;3.95;;;11.00;83.50;;;;;;5047608;28;20021;-59
2024/03/29 08:29:33;;;;;;;16.60;3.83;;;11.00;83.30;;;;;;5065665;28;20405;-59
2024/03/29 08:31:58;;;;;;;17.85;3.88;;;11.10;83.30;;;;;;5065550;28;20028;-59
2024/03/29 08:34:24;;;;;;;18.08;4.72;;;11.10;83.30;;;;;;5064094;28;20041;-59
2024/03/29 08:36:50;;;;;;;22.13;3.83;;;11.10;83.20;;;;;;5064388;28;20028;-59
2024/03/29 08:39:16;;;;;;;17.75;3.67;;;11.20;83.50;;;;;;5064569;28;20075;-59
2024/03/29 08:41:44;;;;;;;31.08;4.53;;;11.20;83.70;;;;;;5063321;28;20059;-58
2024/03/29 08:44:10;;;;;;;38.78;5.60;;;11.20;83.60;;;;;;5064346;28;20025;-59
2024/03/29 08:46:35;;;;;;;29.40;4.13;;;11.30;83.60;;;;;;5064316;28;20465;-59
2024/03/29 08:49:01;;;;;;;10.82;3.40;;;11.30;83.50;;;;;;5065857;28;20036;-59
2024/03/29 08:51:27;;;;;;;22.23;4.00;;;11.30;83.40;;;;;;5046968;28;20059;-59
2024/03/29 08:53:52;;;;;;;17.42;4.15;;;11.40;83.30;;;;;;5065079;28;20029;-59
2024/03/29 08:56:18;;;;;;;16.48;3.13;;;11.40;83.40;;;;;;5063975;28;20029;-59
2024/03/29 08:58:43;;;;;;;21.00;4.35;;;11.40;83.30;;;;;;5061168;28;20025;-59
2024/03/29 09:01:10;;;;;;;23.55;4.20;;;11.40;83.00;;;;;;5064005;28;20030;-59
2024/03/29 09:03:36;;;;;;;23.48;4.18;;;11.50;83.20;;;;;;5045063;28;20029;-59
2024/03/29 09:06:02;;;;;;;31.55;3.92;;;11.50;83.10;;;;;;5063639;28;20029;-59
2024/03/29 09:08:27;;;;;;;23.42;4.28;;;11.60;83.20;;;;;;5029846;28;20035;-59
2024/03/29 09:10:53;;;;;;;26.55;4.07;;;11.60;83.20;;;;;;5060816;28;20047;-59
2024/03/29 09:13:19;;;;;;;26.52;4.13;;;11.70;83.20;;;;;;5045554;28;20021;-59
2024/03/29 09:15:44;;;;;;;27.88;4.28;;;11.70;83.00;;;;;;5063201;28;20021;-59
2024/03/29 09:18:16;;;;;;;34.40;4.50;;;11.70;82.90;;;;;;5061570;28;20524;-59
2024/03/29 09:20:42;;;;;;;29.88;4.55;;;11.70;83.10;;;;;;5062159;28;20040;-59
2024/03/29 09:23:08;;;;;;;23.33;3.88;;;11.80;83.10;;;;;;5058727;28;20060;-59
2024/03/29 09:25:34;;;;;;;34.75;5.13;;;11.80;82.90;;;;;;5062320;28;20025;-59
2024/03/29 09:27:59;;;;;;;56.38;6.68;;;11.90;83.00;;;;;;5062229;28;20055;-59
2024/03/29 09:30:25;;;;;;;78.28;8.13;;;11.90;83.30;;;;;;5044773;28;20094;-59
2024/03/29 09:32:50;;;;;;;57.55;6.93;;;12.00;83.30;;;;;;5061579;28;20021;-59
2024/03/29 09:35:19;;;;;;;76.38;9.48;;;12.00;83.50;;;;;;5062751;28;20135;-59
2024/03/29 09:37:44;;;;;;;71.22;9.10;;;12.10;83.20;;;;;;5049114;28;20079;-59
2024/03/29 09:40:10;;;;;;;72.70;10.05;;;12.10;83.50;;;;;;5062867;28;20047;-59
2024/03/29 09:42:36;;;;;;;123.13;11.38;;;12.20;83.10;;;;;;5060832;28;20059;-59
2024/03/29 09:45:05;;;;;;;77.10;8.73;;;12.20;83.00;;;;;;5045047;28;20033;-59
2024/03/29 09:47:31;;;;;;;73.90;8.85;;;12.20;82.90;;;;;;5056017;28;20381;-59
2024/03/29 09:49:58;;;;;;;108.85;10.65;;;12.30;83.10;;;;;;5056066;28;20146;-59
2024/03/29 09:52:23;;;;;;;111.25;11.75;;;12.40;83.20;;;;;;5029554;28;20062;-59
2024/03/29 09:54:49;;;;;;;112.30;11.43;;;12.40;83.30;;;;;;5042077;28;20562;-59
2024/03/29 09:57:14;;;;;;;99.05;11.82;;;12.50;83.40;;;;;;5061390;28;20024;-59
2024/03/29 09:59:40;;;;;;;116.55;12.10;;;12.50;83.40;;;;;;5056201;28;20035;-59
2024/03/29 10:02:14;;;;;;;138.70;15.50;;;12.60;83.20;;;;;;5059589;28;20025;-59
2024/03/29 10:04:40;;;;;;;181.35;16.00;;;12.60;83.30;;;;;;5034565;28;20092;-59
2024/03/29 10:07:06;;;;;;;130.30;14.15;;;12.70;83.30;;;;;;5044904;28;20055;-58
2024/03/29 10:09:33;;;;;;;100.05;11.30;;;12.70;83.00;;;;;;5038861;28;20033;-59
2024/03/29 10:11:58;;;;;;;88.65;9.13;;;12.80;83.20;;;;;;5056378;28;20032;-59
2024/03/29 10:14:24;;;;;;;119.95;14.73;;;12.80;82.60;;;;;;5052731;28;20048;-59
2024/03/29 10:16:52;;;;;;;194.80;18.10;;;12.90;83.00;;;;;;5041040;28;20127;-59
2024/03/29 10:19:17;;;;;;;154.52;15.60;;;12.90;83.60;;;;;;5039802;28;20047;-59
2024/03/29 10:21:43;;;;;;;151.70;15.23;;;13.00;83.70;;;;;;5055604;28;20156;-59
2024/03/29 10:24:14;;;;;;;190.07;19.70;;;13.10;83.50;;;;;;5034012;28;20037;-59
2024/03/29 10:26:40;;;;;;;142.27;16.20;;;13.20;83.70;;;;;;5060679;28;20025;-59
2024/03/29 10:29:05;;;;;;;128.60;14.70;;;13.20;83.40;;;;;;5046486;28;20111;-59
2024/03/29 10:31:36;;;;;;;130.77;16.38;;;13.30;83.30;;;;;;5069269;28;20025;-59
2024/03/29 10:34:11;;;;;;;166.43;16.02;;;13.30;83.30;;;;;;5060567;28;20029;-59
2024/03/29 10:36:36;;;;;;;170.35;21.35;;;13.40;83.30;;;;;;5057182;28;20082;-59
2024/03/29 10:39:03;;;;;;;193.82;20.48;;;13.50;83.40;;;;;;5042971;28;20045;-59
2024/03/29 10:41:28;;;;;;;158.15;15.48;;;13.50;83.50;;;;;;5062743;28;20352;-59
2024/03/29 10:43:55;;;;;;;98.72;12.73;;;13.60;83.10;;;;;;5046612;28;20033;-58
2024/03/29 10:46:21;;;;;;;117.43;13.18;;;13.60;82.90;;;;;;5020963;28;20021;-58
2024/03/29 10:48:47;;;;;;;218.35;21.63;;;13.70;82.90;;;;;;5048189;28;20017;-59
2024/03/29 10:51:13;;;;;;;214.15;19.85;;;13.70;83.10;;;;;;5027749;28;20112;-59
2024/03/29 10:53:38;;;;;;;165.00;19.08;;;13.80;83.10;;;;;;5044546;28;20032;-59
2024/03/29 10:56:05;;;;;;;155.18;19.83;;;13.80;83.10;;;;;;5061393;28;20090;-59
2024/03/29 10:58:33;;;;;;;145.93;16.23;;;13.90;83.10;;;;;;5058561;28;20095;-59
2024/03/29 11:00:59;;;;;;;147.15;15.20;;;14.00;82.90;;;;;;5059907;28;20029;-59
2024/03/29 11:03:33;;;;;;;143.98;17.40;;;14.00;83.10;;;;;;5061942;28;20091;-59
2024/03/29 11:06:02;;;;;;;191.27;20.08;;;14.00;83.40;;;;;;5065141;28;20400;-59
2024/03/29 11:08:30;;;;;;;96.82;13.32;;;14.10;83.10;;;;;;5083973;28;20040;-58
2024/03/29 11:10:58;;;;;;;68.10;10.63;;;14.10;82.80;;;;;;5065103;28;20436;-59
2024/03/29 11:13:47;;;;;;;91.45;12.73;;;14.20;82.40;;;;;;5080900;28;20040;-59
2024/03/29 11:16:15;;;;;;;198.40;21.55;;;14.20;82.30;;;;;;5084639;28;20029;-59
2024/03/29 11:18:41;;;;;;;126.30;14.60;;;14.30;82.90;;;;;;5070615;28;20036;-59
2024/03/29 11:21:09;;;;;;;179.45;19.58;;;14.30;83.00;;;;;;5045710;28;20028;-59
2024/03/29 11:23:35;;;;;;;137.43;16.73;;;14.40;83.20;;;;;;5046769;28;20087;-59
2024/03/29 11:26:01;;;;;;;139.40;17.58;;;14.40;82.80;;;;;;5046053;28;20025;-59
2024/03/29 11:28:31;;;;;;;239.10;25.20;;;14.50;82.90;;;;;;5047879;28;20025;-59
2024/03/29 11:31:06;;;;;;;105.95;11.68;;;14.50;83.10;;;;;;5047226;28;20112;-59
2024/03/29 11:33:33;;;;;;;87.05;12.00;;;14.60;82.50;;;;;;5039464;28;20124;-59
2024/03/29 11:36:08;;;;;;;42.47;7.18;;;14.60;82.00;;;;;;5046849;28;20101;-58
2024/03/29 11:38:34;;;;;;;55.58;6.65;;;14.70;81.30;;;;;;5048797;28;20044;-59
2024/03/29 11:41:02;;;;;;;46.83;6.57;;;14.80;80.70;;;;;;5065666;28;20123;-59
2024/03/29 11:43:29;;;;;;;63.53;7.25;;;14.80;80.50;;;;;;5063642;28;20036;-58
2024/03/29 11:45:55;;;;;;;60.97;7.40;;;14.90;80.60;;;;;;5048337;28;20110;-58
2024/03/29 11:48:27;;;;;;;71.15;8.60;;;14.90;80.90;;;;;;5064532;28;20341;-59
2024/03/29 11:50:53;;;;;;;66.45;8.80;;;15.00;81.10;;;;;;5045530;28;20017;-59
2024/03/29 11:53:22;;;;;;;118.97;12.95;;;15.00;81.50;;;;;;5055698;28;20102;-59
2024/03/29 11:55:53;;;;;;;73.25;10.13;;;15.10;80.80;;;;;;5063045;28;20393;-59
2024/03/29 11:58:26;;;;;;;58.55;8.60;;;15.10;80.90;;;;;;5062480;28;20029;-59
2024/03/29 12:00:52;;;;;;;91.60;10.88;;;15.20;81.20;;;;;;5045911;28;20364;-59
2024/03/29 12:03:20;;;;;;;66.55;9.07;;;15.30;81.10;;;;;;5061711;28;20055;-59
2024/03/29 12:05:46;;;;;;;80.55;9.85;;;15.30;81.20;;;;;;5045721;28;20033;-59
2024/03/29 12:08:12;;;;;;;206.55;20.92;;;15.40;81.20;;;;;;5062591;28;20471;-59
2024/03/29 12:10:38;;;;;;;90.65;11.10;;;15.50;80.90;;;;;;5063464;28;20039;-59
2024/03/29 12:13:07;;;;;;;81.95;10.18;;;15.50;80.70;;;;;;5046977;28;20045;-58
2024/03/29 12:15:33;;;;;;;74.43;10.00;;;15.60;80.70;;;;;;5046778;28;20109;-59
2024/03/29 12:18:00;;;;;;;79.68;9.55;;;15.70;80.80;;;;;;5063959;28;20047;-59
2024/03/29 12:20:25;;;;;;;72.07;9.70;;;15.70;80.20;;;;;;5047618;28;20031;-58
2024/03/29 12:22:51;;;;;;;63.28;9.65;;;15.80;79.90;;;;;;5063740;28;20112;-59
2024/03/29 12:25:19;;;;;;;69.53;8.65;;;15.80;80.50;;;;;;5063865;28;20029;-59
2024/03/29 12:27:46;;;;;;;66.32;8.70;;;15.90;80.30;;;;;;5051624;28;20017;-59
2024/03/29 12:30:12;;;;;;;91.32;11.63;;;16.00;80.40;;;;;;5058988;28;20109;-59
2024/03/29 12:32:38;;;;;;;76.13;10.35;;;16.00;80.20;;;;;;5055756;28;20045;-59
2024/03/29 12:35:10;;;;;;;74.30;9.93;;;16.10;80.20;;;;;;5058948;28;20051;-59
2024/03/29 12:37:36;;;;;;;64.88;8.77;;;16.20;80.00;;;;;;5068378;28;20036;-59